Time;durP1;ratioP1;P1;durP2;ratioP2;P2;SDS_P1;SDS_P2;PMS_P1;PMS_P2;Temp;Humidity;BMP_temperature;BMP_pressure;BME280_temperature;BME280_humidity;BME280_pressure;Samples;Min_cycle;Max_cycle;Signal;HPM_P1;HPM_P2
2022/05/10 00:00:28;;;;;;;55.20;33.08;;;;;;;16.55;60.90;101991.41;5059764;28;20136;-86
2022/05/10 00:02:56;;;;;;;60.67;34.20;;;;;;;16.50;61.45;101998.34;5063293;28;20275;-86
2022/05/10 00:05:32;;;;;;;61.28;35.20;;;;;;;16.54;61.73;101994.03;5064031;28;20032;-85
2022/05/10 00:07:59;;;;;;;53.70;33.92;;;;;;;16.49;61.68;101996.56;5065148;28;20028;-85
2022/05/10 00:10:24;;;;;;;53.65;32.97;;;;;;;16.40;60.99;101988.53;5063635;28;20028;-86
2022/05/10 00:12:50;;;;;;;56.38;33.10;;;;;;;16.30;61.60;101987.47;5064317;28;20028;-85
2022/05/10 00:15:16;;;;;;;52.15;31.88;;;;;;;16.22;61.40;101989.97;5064142;28;20112;-86
2022/05/10 00:17:42;;;;;;;60.45;32.47;;;;;;;16.11;61.51;101986.25;5064057;28;20036;-85
2022/05/10 00:20:12;;;;;;;60.45;33.97;;;;;;;16.08;61.65;101984.44;5061099;28;20638;-86
2022/05/10 00:22:38;;;;;;;;;;;;;;;16.32;60.17;101977.84;5060355;28;20413;-86
2022/05/10 00:25:06;;;;;;;58.80;33.17;;;;;;;16.08;61.71;101973.94;5064095;28;19904;-86
2022/05/10 00:27:32;;;;;;;62.70;34.65;;;;;;;16.07;61.79;101968.63;5063905;28;20099;-86
2022/05/10 00:29:57;;;;;;;65.28;35.05;;;;;;;16.02;61.92;101975.53;5063926;28;20052;-86
2022/05/10 00:32:27;;;;;;;59.72;34.92;;;;;;;15.98;63.35;101962.34;5063458;28;20032;-85
2022/05/10 00:34:53;;;;;;;61.42;34.00;;;;;;;15.98;63.00;101966.72;5063915;28;20060;-85
2022/05/10 00:37:21;;;;;;;64.60;34.42;;;;;;;15.93;63.13;101969.28;5064360;28;20214;-86
2022/05/10 00:39:46;;;;;;;56.88;34.38;;;;;;;15.88;63.41;101967.41;5063637;28;20351;-86
2022/05/10 00:42:35;;;;;;;59.88;34.40;;;;;;;15.89;62.81;101966.53;5063315;28;20025;-86
2022/05/10 00:45:15;;;;;;;56.67;33.53;;;;;;;15.84;63.89;101968.19;5062536;28;20021;-85
2022/05/10 00:47:59;;;;;;;63.72;35.05;;;;;;;15.85;63.68;101962.09;5063137;28;20037;-85
2022/05/10 00:50:33;;;;;;;64.55;34.63;;;;;;;15.77;64.20;101954.00;5063721;28;20310;-85
2022/05/10 00:53:13;;;;;;;60.22;34.10;;;;;;;15.70;64.28;101950.38;5063650;28;20032;-86
2022/05/10 00:55:43;;;;;;;54.33;32.78;;;;;;;15.65;64.75;101958.13;5063472;28;20323;-85
2022/05/10 00:58:37;;;;;;;61.42;31.98;;;;;;;15.64;63.97;101950.22;5064060;28;20029;-86
2022/05/10 01:01:03;;;;;;;54.67;32.05;;;;;;;15.48;65.21;101952.56;5063295;28;20071;-86
2022/05/10 01:03:44;;;;;;;58.22;32.00;;;;;;;15.46;65.43;101940.25;5062424;28;20084;-85
2022/05/10 01:06:27;;;;;;;55.10;32.22;;;;;;;15.43;64.64;101943.69;5063526;28;20031;-86
2022/05/10 01:09:02;;;;;;;58.08;32.88;;;;;;;15.36;65.74;101947.03;5068598;28;20041;-85
2022/05/10 01:12:04;;;;;;;64.03;34.28;;;;;;;15.36;64.96;101939.16;5063240;28;20020;-85
2022/05/10 01:14:37;;;;;;;56.30;32.70;;;;;;;15.32;66.13;101937.31;5061430;28;20052;-85
2022/05/10 01:17:02;;;;;;;60.88;34.13;;;;;;;15.30;65.92;101933.78;5063301;28;20028;-85
2022/05/10 01:19:27;;;;;;;56.85;33.72;;;;;;;15.27;65.72;101933.72;5063032;28;20060;-85
2022/05/10 01:22:25;;;;;;;59.53;33.55;;;;;;;15.28;65.46;101933.75;5063794;28;20259;-85
2022/05/10 01:25:00;;;;;;;59.92;33.20;;;;;;;15.28;65.85;101922.38;5061380;28;20025;-85
2022/05/10 01:27:45;;;;;;;62.28;36.08;;;;;;;15.24;65.46;101923.16;5062722;28;20031;-85
2022/05/10 01:30:18;;;;;;;65.03;35.50;;;;;;;15.22;65.69;101920.50;5060562;28;20020;-85
2022/05/10 01:35:58;;;;;;;61.30;34.00;;;;;;;15.17;65.33;101913.38;5056357;28;20036;-85
2022/05/10 01:38:35;;;;;;;59.92;33.97;;;;;;;15.07;65.22;101907.91;5050499;28;20021;-85
2022/05/10 01:41:13;;;;;;;65.15;34.97;;;;;;;15.08;66.08;101914.94;5062631;28;20045;-85
2022/05/10 01:43:46;;;;;;;65.05;36.00;;;;;;;15.04;66.55;101905.22;5059978;28;20044;-86
2022/05/10 01:46:24;;;;;;;63.35;35.13;;;;;;;15.02;66.16;101908.66;5062716;28;20021;-85
2022/05/10 01:49:08;;;;;;;66.32;36.40;;;;;;;14.97;67.26;101902.41;5062527;28;20048;-85
2022/05/10 01:51:42;;;;;;;62.08;34.92;;;;;;;14.95;66.72;101899.75;5062406;28;20236;-85
2022/05/10 01:54:45;;;;;;;65.53;34.53;;;;;;;14.97;66.33;101892.81;5061490;28;20032;-85
2022/05/10 01:57:14;;;;;;;66.35;35.80;;;;;;;14.87;67.51;101891.69;5062335;28;20279;-85
2022/05/10 01:59:47;;;;;;;70.03;36.78;;;;;;;14.86;67.27;101891.66;5060853;28;20040;-86
2022/05/10 02:02:14;;;;;;;64.50;36.92;;;;;;;14.81;67.63;101888.06;5062221;28;20071;-85
2022/05/10 02:04:40;;;;;;;64.38;35.05;;;;;;;14.80;67.54;101889.78;5061499;28;20086;-85
2022/05/10 02:07:18;;;;;;;65.55;36.15;;;;;;;14.75;67.57;101881.81;5062272;28;20273;-85
2022/05/10 02:09:49;;;;;;;68.40;35.95;;;;;;;14.68;67.87;101885.16;5062453;28;20044;-85
2022/05/10 02:12:25;;;;;;;69.35;36.35;;;;;;;14.65;68.06;101878.97;5062056;28;20495;-86
2022/05/10 02:14:54;;;;;;;68.50;36.38;;;;;;;14.64;67.14;101878.03;5060676;28;20033;-86
2022/05/10 02:17:25;;;;;;;70.32;37.08;;;;;;;14.60;67.12;101878.81;5062240;28;20175;-86
2022/05/10 02:20:05;;;;;;;64.35;35.72;;;;;;;14.56;66.99;101875.22;5062045;28;20040;-85
2022/05/10 02:22:32;;;;;;;;;;;;;;;14.77;65.38;101868.72;5060171;28;20025;-85
2022/05/10 02:25:02;;;;;;;68.30;36.75;;;;;;;14.63;67.02;101864.91;5061962;28;19913;-86
2022/05/10 02:27:35;;;;;;;80.10;40.03;;;;;;;14.57;68.19;101870.84;5061844;28;20214;-85
2022/05/10 02:30:06;;;;;;;71.97;37.70;;;;;;;14.57;68.70;101863.88;5062020;28;20033;-85
2022/05/10 02:35:34;;;;;;;74.80;39.03;;;;;;;14.59;68.84;101861.31;5057899;28;20334;-86
2022/05/10 02:37:59;;;;;;;78.70;39.77;;;;;;;14.58;68.74;101851.66;5062012;28;20059;-85
2022/05/10 02:40:25;;;;;;;78.80;39.78;;;;;;;14.62;68.70;101853.53;5062376;28;20032;-85
2022/05/10 02:42:50;;;;;;;71.30;39.00;;;;;;;14.57;68.99;101850.78;5061846;28;20288;-85
2022/05/10 02:45:18;;;;;;;78.85;41.03;;;;;;;14.60;68.92;101847.34;5061754;28;20036;-85
2022/05/10 02:47:45;;;;;;;77.38;39.72;;;;;;;14.55;68.78;101851.59;5055813;28;20060;-86
2022/05/10 02:50:29;;;;;;;74.55;41.00;;;;;;;14.61;67.87;101849.09;5055567;28;20187;-85
2022/05/10 02:52:54;;;;;;;79.85;40.90;;;;;;;14.56;69.08;101842.88;5059740;28;20100;-85
2022/05/10 02:55:38;;;;;;;78.20;40.30;;;;;;;14.55;68.99;101841.09;5062108;28;20036;-86
2022/05/10 02:58:24;;;;;;;84.40;41.65;;;;;;;14.49;69.51;101833.97;5060812;28;20037;-85
2022/05/10 03:00:53;;;;;;;84.85;41.60;;;;;;;14.49;69.88;101833.09;5061359;28;20226;-86
2022/05/10 03:03:22;;;;;;;82.35;41.15;;;;;;;14.47;70.04;101827.81;5059662;28;20056;-85
2022/05/10 03:05:48;;;;;;;85.50;42.50;;;;;;;14.46;70.01;101828.66;5060341;28;20206;-86
2022/05/10 03:08:13;;;;;;;84.88;41.88;;;;;;;14.48;69.49;101824.31;5076312;28;20029;-86
2022/05/10 03:10:38;;;;;;;83.75;43.05;;;;;;;14.46;70.01;101822.53;5062009;28;20112;-85
2022/05/10 03:13:04;;;;;;;82.57;41.70;;;;;;;14.42;69.99;101819.84;5053557;28;20177;-86
2022/05/10 03:15:30;;;;;;;95.45;42.33;;;;;;;14.43;70.10;101816.34;5063433;28;20025;-85
2022/05/10 03:17:57;;;;;;;85.43;41.80;;;;;;;14.39;69.49;101822.38;5064946;28;20079;-86
2022/05/10 03:20:22;;;;;;;89.05;43.85;;;;;;;14.39;70.40;101808.38;5065540;28;20033;-86
2022/05/10 03:22:47;;;;;;;90.47;42.75;;;;;;;14.37;70.21;101810.09;5065682;28;20178;-86
2022/05/10 03:25:13;;;;;;;94.75;42.38;;;;;;;14.35;71.01;101817.03;5065557;28;20275;-86
2022/05/10 03:27:39;;;;;;;95.32;43.58;;;;;;;14.36;70.80;101808.31;5056051;28;20049;-85
2022/05/10 03:30:05;;;;;;;80.05;41.75;;;;;;;14.36;70.56;101803.94;5060794;28;20028;-86
2022/05/10 03:32:31;;;;;;;90.00;41.75;;;;;;;14.36;71.08;101805.69;5067344;28;20025;-85
2022/05/10 03:34:59;;;;;;;90.28;43.92;;;;;;;14.35;71.30;101806.53;5065703;28;20049;-86
2022/05/10 03:37:27;;;;;;;94.47;44.50;;;;;;;14.36;71.12;101803.06;5063885;28;20041;-86
2022/05/10 03:39:52;;;;;;;88.38;41.03;;;;;;;14.37;70.80;101797.84;5059863;28;20072;-85
2022/05/10 03:42:19;;;;;;;88.53;41.85;;;;;;;14.35;70.69;101804.81;5064584;28;20024;-86
2022/05/10 03:44:52;;;;;;;91.20;43.00;;;;;;;14.35;70.76;101799.56;5065164;28;20079;-86
2022/05/10 03:47:19;;;;;;;95.28;43.22;;;;;;;14.35;71.06;101796.03;5062406;28;20028;-85
2022/05/10 03:49:45;;;;;;;88.72;43.28;;;;;;;14.34;71.10;101795.16;5065448;28;20036;-86
2022/05/10 03:52:11;;;;;;;95.57;43.35;;;;;;;14.33;71.14;101796.00;5064874;28;20079;-86
2022/05/10 03:54:37;;;;;;;90.13;42.97;;;;;;;14.31;71.50;101799.44;5064564;28;20032;-86
2022/05/10 03:57:02;;;;;;;89.70;42.28;;;;;;;14.26;71.16;101792.38;5064198;28;20051;-85
2022/05/10 03:59:31;;;;;;;92.28;44.63;;;;;;;14.32;71.18;101785.50;5061981;28;20070;-86
2022/05/10 04:01:57;;;;;;;95.22;44.90;;;;;;;14.30;71.49;101788.06;5064484;28;20132;-86
2022/05/10 04:04:23;;;;;;;92.35;41.30;;;;;;;14.33;71.28;101785.53;5063867;28;20029;-86
2022/05/10 04:06:48;;;;;;;91.22;42.65;;;;;;;14.31;71.97;101787.25;5064237;28;20138;-86
2022/05/10 04:09:15;;;;;;;96.57;43.50;;;;;;;14.29;71.70;101791.53;5064224;28;20025;-86
2022/05/10 04:11:41;;;;;;;87.57;42.33;;;;;;;14.29;72.09;101785.44;5063841;28;20035;-86
2022/05/10 04:14:06;;;;;;;87.45;41.67;;;;;;;14.26;71.90;101781.91;5059823;28;20049;-86
2022/05/10 04:16:31;;;;;;;95.45;42.88;;;;;;;14.26;71.98;101780.97;5060123;28;20044;-85
2022/05/10 04:18:57;;;;;;;88.18;41.70;;;;;;;14.26;72.16;101780.97;5063576;28;20116;-85
2022/05/10 04:21:23;;;;;;;90.07;41.08;;;;;;;14.28;72.05;101787.16;5064730;28;20155;-86
2022/05/10 04:23:49;;;;;;;91.15;41.90;;;;;;;14.25;72.12;101784.44;5052236;28;20103;-86
2022/05/10 04:26:16;;;;;;;86.63;41.00;;;;;;;14.26;71.75;101784.50;5063886;28;20210;-86
2022/05/10 04:28:43;;;;;;;91.65;41.55;;;;;;;14.25;72.42;101787.06;5063942;28;20020;-85
2022/05/10 04:31:09;;;;;;;83.35;39.63;;;;;;;14.25;72.32;101785.34;5063937;28;20071;-85
2022/05/10 04:33:34;;;;;;;86.43;41.35;;;;;;;14.27;72.38;101780.16;5063735;28;20049;-86
2022/05/10 04:36:00;;;;;;;83.13;40.30;;;;;;;14.26;72.23;101774.03;5061874;28;20309;-86
2022/05/10 04:38:26;;;;;;;79.38;40.00;;;;;;;14.29;72.51;101774.94;5063606;28;20040;-86
2022/05/10 04:43:38;;;;;;;75.45;38.83;;;;;;;14.30;73.09;101777.59;5063390;28;20094;-86
2022/05/10 04:46:03;;;;;;;75.85;38.17;;;;;;;14.33;72.98;101776.78;5063637;28;20268;-86
2022/05/10 04:48:28;;;;;;;76.78;37.67;;;;;;;14.36;72.78;101768.97;5063229;28;20043;-86
2022/05/10 04:50:54;;;;;;;70.13;36.60;;;;;;;14.35;73.31;101760.25;5064187;28;20021;-86
2022/05/10 04:53:20;;;;;;;66.90;36.75;;;;;;;14.39;73.20;101767.31;5063332;28;20028;-85
2022/05/10 04:55:45;;;;;;;70.00;35.92;;;;;;;14.41;73.42;101764.72;5063957;28;20039;-86
2022/05/10 04:58:13;;;;;;;67.15;34.42;;;;;;;14.44;73.63;101764.81;5062383;28;20028;-86
2022/05/10 05:00:39;;;;;;;68.78;33.67;;;;;;;14.49;73.44;101764.91;5063963;28;20013;-86
2022/05/10 05:03:04;;;;;;;62.53;32.25;;;;;;;14.52;73.87;101765.84;5063584;28;20029;-86
2022/05/10 05:05:29;;;;;;;64.80;32.63;;;;;;;14.57;73.79;101758.97;5063411;28;20017;-86
2022/05/10 05:07:54;;;;;;;64.65;32.15;;;;;;;14.61;73.71;101765.16;5063038;28;20041;-86
2022/05/10 05:10:20;;;;;;;63.58;31.08;;;;;;;14.66;73.63;101766.19;5063831;28;20294;-86
2022/05/10 05:12:45;;;;;;;55.95;30.40;;;;;;;14.67;74.07;101762.72;5063056;28;20279;-86
2022/05/10 05:15:12;;;;;;;62.17;30.88;;;;;;;14.72;74.15;101771.56;5063611;28;20041;-86
2022/05/10 05:17:38;;;;;;;62.03;30.38;;;;;;;14.75;73.84;101769.00;5062123;28;20073;-86
2022/05/10 05:20:04;;;;;;;54.30;29.05;;;;;;;14.80;74.38;101768.22;5061397;28;20109;-86
2022/05/10 05:22:29;;;;;;;52.88;26.95;;;;;;;14.86;73.29;101776.22;5063014;28;20036;-86
2022/05/10 05:24:55;;;;;;;44.25;26.00;;;;;;;14.93;71.28;101771.13;5066134;28;20052;-86
2022/05/10 05:27:20;;;;;;;44.95;25.15;;;;;;;15.03;70.45;101771.31;5063039;28;20250;-86
2022/05/10 05:29:46;;;;;;;41.95;24.38;;;;;;;15.10;69.71;101768.84;5062766;28;20256;-86
2022/05/10 05:32:15;;;;;;;38.53;23.60;;;;;;;15.21;69.13;101776.94;5063645;28;20084;-86
2022/05/10 05:34:41;;;;;;;35.17;22.52;;;;;;;15.28;68.86;101773.56;5064040;28;20032;-87
2022/05/10 05:39:50;;;;;;;35.03;22.58;;;;;;;15.44;67.87;101764.25;5058428;28;20078;-85
2022/05/10 05:42:17;;;;;;;33.40;22.65;;;;;;;15.52;68.23;101768.75;5062643;28;20262;-86
2022/05/10 05:44:43;;;;;;;33.08;22.33;;;;;;;15.57;68.01;101764.44;5050155;28;20024;-86
2022/05/10 05:47:08;;;;;;;32.28;21.38;;;;;;;15.61;68.22;101763.66;5062198;28;20294;-87
2022/05/10 05:49:34;;;;;;;33.40;22.27;;;;;;;15.66;67.63;101762.00;5062702;28;20084;-87
2022/05/10 05:52:01;;;;;;;32.70;21.80;;;;;;;15.71;68.08;101765.56;5063200;28;20043;-86
2022/05/10 05:54:26;;;;;;;34.50;21.85;;;;;;;15.77;67.35;101756.91;5061929;28;20256;-86
2022/05/10 05:57:02;;;;;;;31.02;21.42;;;;;;;15.85;67.40;101757.09;5059167;28;20035;-86
2022/05/10 05:59:28;;;;;;;29.90;20.80;;;;;;;15.91;67.35;101751.94;5062127;28;20272;-87
2022/05/10 06:01:54;;;;;;;29.83;20.50;;;;;;;15.97;67.67;101755.56;5062153;28;20021;-87
2022/05/10 06:04:19;;;;;;;27.35;20.23;;;;;;;16.02;67.27;101745.09;5061661;28;20032;-87
2022/05/10 06:06:45;;;;;;;25.45;18.83;;;;;;;16.07;66.56;101738.16;5062508;28;20218;-87
2022/05/10 06:09:10;;;;;;;28.33;19.67;;;;;;;16.12;66.56;101741.75;5061667;28;20024;-87
2022/05/10 06:11:35;;;;;;;26.25;19.30;;;;;;;16.17;66.38;101747.94;5062384;28;20260;-87
2022/05/10 06:14:01;;;;;;;24.50;18.33;;;;;;;16.23;66.45;101743.66;5062518;28;20052;-87
2022/05/10 06:16:27;;;;;;;25.83;18.25;;;;;;;16.27;66.63;101745.47;5062372;28;20031;-88
2022/05/10 06:18:53;;;;;;;23.73;17.25;;;;;;;16.32;66.09;101743.78;5062444;28;20048;-87
2022/05/10 06:21:18;;;;;;;22.02;17.63;;;;;;;16.37;66.45;101750.00;5062100;28;20060;-87
2022/05/10 06:23:43;;;;;;;25.92;16.85;;;;;;;16.42;66.33;101745.66;5062182;28;20037;-87
2022/05/10 06:26:09;;;;;;;21.92;17.30;;;;;;;16.49;66.15;101747.53;5061994;28;20051;-87
2022/05/10 06:28:34;;;;;;;24.75;16.77;;;;;;;16.56;66.09;101739.72;5062395;28;20032;-87
2022/05/10 06:31:02;;;;;;;21.13;16.35;;;;;;;16.61;65.72;101745.91;5062114;28;20282;-87
2022/05/10 06:33:28;;;;;;;21.25;15.82;;;;;;;16.66;65.72;101736.34;5061789;28;20031;-86
2022/05/10 06:35:53;;;;;;;23.35;16.35;;;;;;;16.71;65.12;101733.78;5051251;28;20017;-86
2022/05/10 06:38:27;;;;;;;22.48;16.27;;;;;;;16.75;65.16;101736.47;5061245;28;20028;-86
2022/05/10 06:40:54;;;;;;;21.27;15.65;;;;;;;16.83;64.99;101734.81;5054434;28;20198;-86
2022/05/10 06:43:20;;;;;;;25.05;15.77;;;;;;;16.86;65.40;101731.34;5061718;28;20021;-87
2022/05/10 06:45:47;;;;;;;22.13;15.30;;;;;;;16.90;65.73;101729.66;5048336;28;20048;-87
2022/05/10 06:48:13;;;;;;;18.73;15.43;;;;;;;16.93;65.63;101733.22;5061899;28;20028;-86
2022/05/10 06:50:40;;;;;;;19.40;15.20;;;;;;;16.97;64.82;101728.84;5062362;28;20071;-86
2022/05/10 06:53:05;;;;;;;18.35;15.32;;;;;;;17.01;65.16;101725.38;5061808;28;20021;-87
2022/05/10 06:55:34;;;;;;;18.55;14.80;;;;;;;17.06;65.21;101726.34;5062102;28;20047;-86
2022/05/10 06:58:01;;;;;;;20.70;14.55;;;;;;;17.11;65.33;101726.38;5057326;28;20021;-86
2022/05/10 07:00:27;;;;;;;19.73;15.40;;;;;;;17.16;64.75;101728.19;5059948;28;20021;-87
2022/05/10 07:02:53;;;;;;;17.15;14.32;;;;;;;17.21;65.08;101721.22;5064625;28;20017;-87
2022/05/10 07:05:19;;;;;;;20.33;15.00;;;;;;;17.25;64.84;101722.13;5046857;28;20034;-86
2022/05/10 07:07:45;;;;;;;22.30;15.15;;;;;;;17.31;64.38;101713.41;5049648;28;20033;-83
2022/05/10 07:10:11;;;;;;;18.50;14.52;;;;;;;17.34;64.07;101711.69;5056594;28;20110;-86
2022/05/10 07:12:38;;;;;;;21.42;15.18;;;;;;;17.41;64.95;101717.00;5058777;28;20115;-86
2022/05/10 07:15:05;;;;;;;19.40;14.65;;;;;;;17.50;65.41;101709.19;5059784;28;20062;-86
2022/05/10 07:17:31;;;;;;;17.65;14.57;;;;;;;17.56;64.51;101706.59;5060205;28;20025;-86
2022/05/10 07:19:56;;;;;;;18.83;15.13;;;;;;;17.65;64.06;101705.81;5046501;28;20052;-87
2022/05/10 07:22:21;;;;;;;18.60;14.07;;;;;;;17.71;64.28;101705.84;5059505;28;20253;-87
2022/05/10 07:24:47;;;;;;;17.63;14.20;;;;;;;17.79;64.42;101706.78;5055954;28;20130;-87
2022/05/10 07:27:12;;;;;;;19.85;14.90;;;;;;;17.83;63.64;101705.94;5061272;28;20078;-86
2022/05/10 07:29:37;;;;;;;17.20;13.60;;;;;;;17.90;63.04;101705.16;5051305;28;20035;-86
2022/05/10 07:32:03;;;;;;;17.55;13.57;;;;;;;17.99;63.43;101695.56;5056775;28;20160;-87
2022/05/10 07:34:29;;;;;;;17.23;13.70;;;;;;;18.06;63.76;101702.59;5061346;28;20040;-87
2022/05/10 07:36:55;;;;;;;18.88;13.55;;;;;;;18.16;63.49;101701.81;5059801;28;20157;-87
2022/05/10 07:39:21;;;;;;;20.05;14.02;;;;;;;18.20;62.57;101703.56;5060696;28;20032;-87
2022/05/10 07:41:48;;;;;;;16.30;13.15;;;;;;;18.25;62.08;101708.91;5061099;28;20029;-86
2022/05/10 07:44:13;;;;;;;17.45;12.82;;;;;;;18.27;61.67;101701.88;5061723;28;20021;-86
2022/05/10 07:46:39;;;;;;;16.58;12.70;;;;;;;18.32;62.06;101689.59;5061181;28;20071;-86
2022/05/10 07:49:05;;;;;;;13.95;12.43;;;;;;;18.38;61.28;101699.28;5061055;28;20036;-87
2022/05/10 07:51:30;;;;;;;15.95;12.63;;;;;;;18.45;61.05;101684.34;5060774;28;20024;-87
2022/05/10 07:53:56;;;;;;;17.55;12.35;;;;;;;18.48;61.02;101693.19;5060841;28;20025;-86
2022/05/10 07:56:24;;;;;;;16.10;12.05;;;;;;;18.53;61.62;101698.47;5062063;28;20025;-87
2022/05/10 07:58:49;;;;;;;14.82;11.88;;;;;;;18.60;61.86;101687.94;5063662;28;20021;-87
2022/05/10 08:01:14;;;;;;;18.17;12.77;;;;;;;18.63;61.61;101695.00;5053548;28;20025;-85
2022/05/10 08:03:40;;;;;;;16.10;12.07;;;;;;;18.71;61.92;101684.44;5065226;28;20074;-87
2022/05/10 08:06:06;;;;;;;14.90;12.05;;;;;;;18.72;60.20;101689.72;5064536;28;20048;-86
2022/05/10 08:08:33;;;;;;;15.95;11.77;;;;;;;18.76;61.40;101690.66;5065030;28;20044;-87
2022/05/10 08:10:59;;;;;;;13.73;11.82;;;;;;;18.85;61.58;101684.50;5059352;28;20172;-83
2022/05/10 08:13:27;;;;;;;19.15;13.32;;;;;;;18.89;61.21;101688.97;5061641;28;20099;-88
2022/05/10 08:15:54;;;;;;;14.95;12.00;;;;;;;18.96;61.58;101698.66;5065249;28;20244;-88
2022/05/10 08:18:21;;;;;;;15.98;11.68;;;;;;;18.97;60.84;101683.69;5064217;28;20108;-87
2022/05/10 08:20:47;;;;;;;14.32;11.88;;;;;;;19.04;59.21;101678.41;5063706;28;20039;-87
2022/05/10 08:23:33;;;;;;;13.15;11.82;;;;;;;19.04;60.19;101675.75;5055657;28;20025;-87
2022/05/10 08:25:59;;;;;;;13.18;11.43;;;;;;;19.04;59.64;101686.34;5051754;28;20021;-89
2022/05/10 08:28:28;;;;;;;16.13;11.38;;;;;;;19.06;59.91;101683.69;5061187;28;20324;-88
2022/05/10 08:30:54;;;;;;;15.18;11.75;;;;;;;19.05;58.51;101676.66;5057342;28;20088;-87
2022/05/10 08:33:23;;;;;;;17.58;11.82;;;;;;;19.04;58.23;101677.53;5054506;28;20350;-87
2022/05/10 08:35:49;;;;;;;17.98;11.48;;;;;;;19.06;58.05;101674.03;5055309;28;20082;-88
2022/05/10 08:38:14;;;;;;;15.75;11.93;;;;;;;19.06;58.09;101667.84;5057075;28;20280;-85
2022/05/10 08:40:52;;;;;;;17.55;11.68;;;;;;;19.11;58.28;101669.63;5051999;28;20198;-87
2022/05/10 08:45:53;;;;;;;14.80;10.98;;;;;;;19.13;58.52;101664.34;6122202;23;20008;-76
2022/05/10 08:48:19;;;;;;;15.27;12.05;;;;;;;19.13;58.59;101664.34;5062570;23;20058;-76
2022/05/10 08:50:47;;;;;;;14.43;11.02;;;;;;;19.14;58.13;101663.47;4974121;23;20050;-76
2022/05/10 08:53:14;;;;;;;16.20;10.48;;;;;;;19.15;58.08;101665.22;4964442;28;20026;-76
2022/05/10 08:55:53;;;;;;;16.83;10.93;;;;;;;19.18;58.11;101656.44;4965808;28;20588;-75
2022/05/10 08:58:39;;;;;;;14.25;10.32;;;;;;;19.20;58.49;101655.53;4964877;28;20022;-77
2022/05/10 09:01:10;;;;;;;12.23;10.68;;;;;;;19.29;59.22;101649.38;4964738;28;20031;-71
2022/05/10 09:04:09;;;;;;;15.05;11.30;;;;;;;19.34;57.99;101647.63;4947547;28;20405;-72
2022/05/10 09:06:49;;;;;;;16.52;10.98;;;;;;;19.41;58.53;101648.53;4965749;28;20505;-72
2022/05/10 09:09:31;;;;;;;15.70;10.63;;;;;;;19.52;57.36;101652.00;4967025;28;20128;-71
2022/05/10 09:12:09;;;;;;;13.15;10.38;;;;;;;19.59;57.18;101645.84;4970443;28;20062;-71
2022/05/10 09:14:44;;;;;;;13.93;11.10;;;;;;;19.67;56.29;101644.94;4949055;28;20038;-72
2022/05/10 09:17:10;;;;;;;14.48;10.13;;;;;;;19.77;57.09;101642.31;4970998;28;20485;-72
2022/05/10 09:19:40;;;;;;;13.35;10.23;;;;;;;19.83;56.17;101635.25;4952260;28;20046;-72
2022/05/10 09:22:23;;;;;;;13.93;10.68;;;;;;;19.96;56.22;101640.53;4966485;28;20031;-72
2022/05/10 09:24:53;;;;;;;14.98;10.75;;;;;;;20.05;55.82;101641.41;4969646;28;20525;-71
2022/05/10 09:27:20;;;;;;;19.55;10.90;;;;;;;20.10;54.90;101640.50;4962402;28;20033;-72
2022/05/10 09:29:49;;;;;;;17.40;10.63;;;;;;;20.18;55.69;101645.75;4971184;28;20038;-72
2022/05/10 09:35:27;;;;;;;12.75;10.80;;;;;;;20.26;55.23;101629.84;4971774;28;20045;-71
2022/05/10 09:38:01;;;;;;;15.75;10.63;;;;;;;20.31;54.59;101634.22;4970598;28;20027;-72
2022/05/10 09:40:44;;;;;;;14.52;10.15;;;;;;;20.36;55.64;101623.63;4971533;28;20026;-72
2022/05/10 09:43:15;;;;;;;17.85;11.27;;;;;;;20.44;54.78;101634.19;4969075;28;20102;-76
2022/05/10 09:45:40;;;;;;;14.10;10.80;;;;;;;20.44;55.18;101634.19;4969084;28;20050;-76
2022/05/10 09:48:08;;;;;;;12.43;10.70;;;;;;;20.52;54.29;101627.06;4971042;28;20510;-76
2022/05/10 09:50:40;;;;;;;13.18;10.73;;;;;;;20.52;54.67;101623.56;4972332;28;20739;-77
2022/05/10 09:53:20;;;;;;;15.25;11.43;;;;;;;20.54;54.57;101624.41;4971801;28;20576;-76
2022/05/10 09:56:25;;;;;;;13.65;11.60;;;;;;;20.58;55.06;101613.81;4964745;28;20030;-75
2022/05/10 09:58:55;;;;;;;17.20;11.75;;;;;;;20.67;55.48;101610.28;4963535;28;20023;-74
2022/05/10 10:01:47;;;;;;;15.10;11.20;;;;;;;20.75;55.88;101607.56;4965552;28;20027;-75
2022/05/10 10:04:33;;;;;;;16.13;11.52;;;;;;;20.88;54.60;101605.72;4968944;28;20035;-75
2022/05/10 10:07:15;;;;;;;14.45;10.93;;;;;;;21.01;55.07;101610.94;4962871;28;20125;-76
2022/05/10 10:09:44;;;;;;;13.65;11.43;;;;;;;21.05;53.30;101595.88;4959285;28;20117;-76
2022/05/10 10:12:26;;;;;;;15.65;10.98;;;;;;;21.22;53.88;101603.69;4962263;28;20034;-77
2022/05/10 10:14:51;;;;;;;16.13;11.25;;;;;;;21.35;54.05;101605.31;4963051;28;20058;-77
2022/05/10 10:17:22;;;;;;;13.85;11.27;;;;;;;21.46;50.95;101599.91;4962730;28;20539;-78
2022/05/10 10:19:52;;;;;;;15.10;10.88;;;;;;;21.57;52.13;101601.63;4969918;28;20490;-77
2022/05/10 10:22:25;;;;;;;17.33;10.95;;;;;;;21.71;52.18;101597.94;4970500;28;20572;-76
2022/05/10 10:25:25;;;;;;;12.52;10.52;;;;;;;21.79;52.18;101591.66;4970043;28;20038;-77
2022/05/10 10:27:59;;;;;;;13.35;10.45;;;;;;;21.96;50.25;101581.75;4965976;28;20046;-77
2022/05/10 10:30:33;;;;;;;15.13;10.30;;;;;;;22.08;49.99;101587.81;4965593;28;20041;-77
2022/05/10 10:33:06;;;;;;;11.63;9.57;;;;;;;22.09;49.61;101602.81;4949091;28;20082;-77
2022/05/10 10:35:37;;;;;;;18.58;9.50;;;;;;;22.15;47.79;101597.44;4968567;28;20078;-76
2022/05/10 10:38:11;;;;;;;15.98;9.18;;;;;;;22.20;48.89;101579.66;4966007;28;20026;-76
2022/05/10 10:40:44;;;;;;;15.60;9.70;;;;;;;22.28;48.05;101583.09;4967404;28;20035;-81
2022/05/10 10:43:12;;;;;;;17.05;10.25;;;;;;;22.33;47.42;101583.97;4967498;28;20620;-77
2022/05/10 10:45:47;;;;;;;12.45;9.52;;;;;;;22.44;48.08;101590.91;4966767;28;20031;-77
2022/05/10 10:48:40;;;;;;;16.73;10.50;;;;;;;22.49;48.79;101583.72;4951796;28;20118;-76
2022/05/10 10:51:09;;;;;;;16.77;9.75;;;;;;;22.46;46.19;101587.31;4963129;28;20115;-77
2022/05/10 10:53:35;;;;;;;14.33;9.90;;;;;;;22.44;46.67;101580.28;4964745;28;20030;-77
2022/05/10 10:56:14;;;;;;;18.65;9.70;;;;;;;22.49;48.49;101581.97;4962921;28;20023;-77
2022/05/10 10:58:51;;;;;;;13.60;10.05;;;;;;;22.47;48.16;101572.25;4960794;28;20043;-76
2022/05/10 11:01:31;;;;;;;16.17;9.95;;;;;;;22.46;49.25;101565.19;4962432;28;20027;-76
2022/05/10 11:04:14;;;;;;;12.70;9.57;;;;;;;22.43;48.76;101559.94;4942748;28;20061;-76
2022/05/10 11:06:53;;;;;;;15.50;10.40;;;;;;;22.44;48.54;101561.69;4969753;28;20023;-77
2022/05/10 11:09:42;;;;;;;20.00;10.77;;;;;;;22.48;47.95;101566.03;4963930;28;20494;-77
2022/05/10 11:12:21;;;;;;;;;;;;;;;22.46;48.64;101541.28;4968142;28;20041;-76
2022/05/10 11:15:30;;;;;;;14.77;10.30;;;;;;;22.46;48.19;101546.59;4967393;28;19918;-77
2022/05/10 11:18:39;;;;;;;18.02;10.30;;;;;;;22.50;47.64;101550.97;4968955;28;20065;-77
2022/05/10 11:21:16;;;;;;;18.60;10.90;;;;;;;22.42;46.71;101545.78;4961946;28;20105;-77
2022/05/10 11:24:20;;;;;;;12.52;10.65;;;;;;;22.36;47.22;101543.19;4964511;28;20034;-76
2022/05/10 11:27:22;;;;;;;15.38;10.90;;;;;;;22.34;48.00;101535.25;4962079;28;20162;-76
2022/05/10 11:29:53;;;;;;;18.60;11.02;;;;;;;22.38;47.00;101536.09;4962651;28;20070;-75
2022/05/10 11:32:53;;;;;;;16.85;10.77;;;;;;;22.47;48.21;101537.75;4968590;28;20390;-71
2022/05/10 11:35:22;;;;;;;16.40;11.85;;;;;;;22.62;47.25;101528.66;4967908;28;20109;-73
2022/05/10 11:38:07;;;;;;;15.55;11.45;;;;;;;22.63;47.24;101525.09;4969816;28;20018;-73
2022/05/10 11:41:04;;;;;;;15.32;11.60;;;;;;;22.68;48.14;101524.13;4968668;28;20118;-74
2022/05/10 11:43:36;;;;;;;20.08;11.20;;;;;;;22.74;47.46;101524.03;4966627;28;20041;-75